Time;durP1;ratioP1;P1;durP2;ratioP2;P2;SDS_P1;SDS_P2;PMS_P1;PMS_P2;Temp;Humidity;BMP_temperature;BMP_pressure;BME280_temperature;BME280_humidity;BME280_pressure;Samples;Min_cycle;Max_cycle;Signal;HPM_P1;HPM_P2
2022/08/20 00:08:59;;;;;;;;;;;;;;;27.44;54.86;99762.47;20425027;28;98314;-74
2022/08/20 00:19:01;;;;;;;;;;;;;;;27.45;54.36;99764.13;20422797;28;99349;-74
2022/08/20 00:29:02;;;;;;;;;;;;;;;27.48;54.18;99761.13;20442126;28;98573;-75
2022/08/20 00:39:03;;;;;;;;;;;;;;;27.44;54.14;99759.81;20446216;28;97865;-74
2022/08/20 00:49:06;;;;;;;;;;;;;;;27.36;54.22;99758.00;20424392;28;98747;-74
2022/08/20 00:59:10;;;;;;;;;;;;;;;27.31;54.08;99739.13;20430717;28;98276;-75
2022/08/20 01:09:12;;;;;;;;;;;;;;;27.25;54.15;99722.03;20431571;28;101601;-75
2022/08/20 01:19:13;;;;;;;;;;;;;;;27.22;54.10;99684.34;20437040;28;98661;-75
2022/08/20 01:29:16;;;;;;;;;;;;;;;27.16;53.98;99668.09;20439572;27;98682;-75
2022/08/20 01:39:19;;;;;;;;;;;;;;;27.15;54.04;99642.53;20426182;28;98868;-75
2022/08/20 01:49:22;;;;;;;;;;;;;;;27.10;53.82;99647.53;20419038;27;99559;-74
2022/08/20 01:59:22;;;;;;;;;;;;;;;27.03;53.24;99667.03;20422652;28;100931;-74
2022/08/20 02:09:27;;;;;;;;;;;;;;;26.97;54.09;99687.97;20429570;28;99607;-74
2022/08/20 02:19:27;;;;;;;;;;;;;;;26.95;53.76;99682.00;20350897;28;98842;-74
2022/08/20 02:29:28;;;;;;;;;;;;;;;26.92;53.77;99686.84;20410328;28;98480;-74
2022/08/20 02:39:28;;;;;;;;;;;;;;;26.91;53.37;99711.75;20438965;28;98650;-75
2022/08/20 02:49:28;;;;;;;;;;;;;;;26.91;53.17;99709.09;20439930;28;99276;-74
2022/08/20 02:59:29;;;;;;;;;;;;;;;26.82;52.91;99713.63;20450291;28;98915;-74
2022/08/20 03:09:29;;;;;;;;;;;;;;;26.77;53.09;99723.91;20439583;28;98466;-75
2022/08/20 03:19:29;;;;;;;;;;;;;;;26.74;53.02;99769.38;20468926;28;100213;-75
2022/08/20 03:29:29;;;;;;;;;;;;;;;26.71;53.09;99772.38;20432676;28;98882;-75
2022/08/20 03:39:30;;;;;;;;;;;;;;;26.60;53.27;99784.19;20434589;28;99075;-74
2022/08/20 03:49:30;;;;;;;;;;;;;;;26.58;53.38;99787.00;20421225;28;100656;-74
2022/08/20 03:59:31;;;;;;;;;;;;;;;26.54;53.46;99777.75;20429778;28;99767;-74
2022/08/20 04:09:32;;;;;;;;;;;;;;;26.52;54.15;99791.19;20441176;28;98631;-75
2022/08/20 04:19:33;;;;;;;;;;;;;;;26.53;54.11;99786.69;20462342;28;97825;-75
2022/08/20 04:29:33;;;;;;;;;;;;;;;26.55;53.77;99736.06;20456295;28;101370;-76
2022/08/20 04:39:34;;;;;;;;;;;;;;;26.57;53.71;99748.19;20455353;28;98565;-75
2022/08/20 04:49:36;;;;;;;;;;;;;;;26.52;53.65;99764.63;20457871;28;101113;-76
2022/08/20 04:59:36;;;;;;;;;;;;;;;26.51;53.15;99749.69;20450786;28;97943;-75
2022/08/20 05:09:37;;;;;;;;;;;;;;;26.51;53.61;99760.31;20465130;28;97768;-76
2022/08/20 05:19:40;;;;;;;;;;;;;;;26.48;53.44;99768.63;20489869;28;98034;-73
2022/08/20 05:29:40;;;;;;;;;;;;;;;25.82;54.71;99758.00;20445216;28;101722;-74
2022/08/20 05:39:41;;;;;;;;;;;;;;;25.03;57.99;99749.53;20475092;28;98317;-74
2022/08/20 05:49:41;;;;;;;;;;;;;;;24.98;58.03;99765.88;20479029;28;97124;-74
2022/08/20 05:59:41;;;;;;;;;;;;;;;25.01;57.96;99757.63;20472276;28;97712;-74
2022/08/20 06:09:42;;;;;;;;;;;;;;;24.95;58.15;99771.53;20468589;28;97658;-75
2022/08/20 06:19:43;;;;;;;;;;;;;;;25.18;57.47;99757.69;20472953;28;97902;-75
2022/08/20 06:29:44;;;;;;;;;;;;;;;25.12;57.56;99766.28;20465973;28;98957;-75
2022/08/20 06:47:08;;;;;;;;;;;;;;;;;;20631248;27;101176;-75
2022/08/20 06:57:08;;;;;;;;;;;;;;;;;;20645024;27;101631;-75
2022/08/20 07:07:09;;;;;;;;;;;;;;;;;;20646924;27;106737;-77
2022/08/20 07:17:09;;;;;;;;;;;;;;;;;;20648879;27;101269;-74
2022/08/20 07:27:09;;;;;;;;;;;;;;;;;;20612245;27;101349;-75
2022/08/20 07:37:09;;;;;;;;;;;;;;;;;;20652963;27;101880;-74
2022/08/20 07:47:09;;;;;;;;;;;;;;;;;;20634097;27;101574;-76
2022/08/20 07:57:10;;;;;;;;;;;;;;;;;;20595408;27;103874;-71
2022/08/20 08:07:10;;;;;;;;;;;;;;;;;;20566481;27;101624;-72
2022/08/20 08:17:11;;;;;;;;;;;;;;;;;;20579499;27;104101;-77
2022/08/20 08:27:11;;;;;;;;;;;;;;;;;;20569996;28;100471;-73
2022/08/20 08:37:11;;;;;;;;;;;;;;;;;;20567053;27;100870;-76
2022/08/20 08:47:17;;;;;;;;;;;;;;;;;;20580609;28;101712;-74
2022/08/20 08:57:17;;;;;;;;;;;;;;;;;;20567804;28;101898;-72
2022/08/20 09:07:17;;;;;;;;;;;;;;;;;;20581678;27;101586;-72
2022/08/20 09:17:17;;;;;;;;;;;;;;;;;;20561368;27;104123;-72
2022/08/20 09:27:18;;;;;;;;;;;;;;;;;;20553729;27;101420;-72
2022/08/20 09:37:18;;;;;;;;;;;;;;;;;;20578782;28;100598;-72
2022/08/20 09:47:18;;;;;;;;;;;;;;;;;;20591137;27;101079;-72
2022/08/20 09:57:18;;;;;;;;;;;;;;;;;;20584281;27;100162;-71
2022/08/20 10:07:18;;;;;;;;;;;;;;;;;;20580294;28;100510;-71
2022/08/20 10:17:18;;;;;;;;;;;;;;;;;;20563968;28;100204;-71
2022/08/20 10:27:19;;;;;;;;;;;;;;;;;;20569463;27;101154;-71
2022/08/20 10:37:19;;;;;;;;;;;;;;;;;;20522334;28;101418;-70
2022/08/20 10:47:19;;;;;;;;;;;;;;;;;;20490804;28;101142;-71
2022/08/20 10:57:19;;;;;;;;;;;;;;;;;;20501283;28;100968;-72
2022/08/20 11:07:19;;;;;;;;;;;;;;;;;;20486878;28;104103;-72
2022/08/20 11:17:19;;;;;;;;;;;;;;;;;;20497183;28;101133;-73
2022/08/20 11:27:20;;;;;;;;;;;;;;;;;;20501084;28;100463;-73
2022/08/20 11:37:20;;;;;;;;;;;;;;;;;;20503349;28;100690;-71
2022/08/20 11:47:20;;;;;;;;;;;;;;;;;;20503707;28;101383;-71
2022/08/20 11:57:20;;;;;;;;;;;;;;;;;;20503976;28;104191;-71
2022/08/20 12:07:20;;;;;;;;;;;;;;;;;;20512426;28;100634;-72
2022/08/20 12:17:22;;;;;;;;;;;;;;;;;;20513824;28;100450;-71
2022/08/20 12:27:22;;;;;;;;;;;;;;;;;;20505172;28;101473;-71
2022/08/20 12:37:23;;;;;;;;;;;;;;;;;;20505739;28;100435;-72
2022/08/20 12:47:23;;;;;;;;;;;;;;;;;;20517784;28;100815;-71
2022/08/20 12:57:23;;;;;;;;;;;;;;;;;;20507269;28;100824;-72
2022/08/20 13:07:23;;;;;;;;;;;;;;;;;;20489150;28;100792;-72
2022/08/20 13:17:24;;;;;;;;;;;;;;;;;;20499011;28;104091;-71
2022/08/20 13:27:24;;;;;;;;;;;;;;;;;;20510441;28;100027;-71
2022/08/20 13:37:24;;;;;;;;;;;;;;;;;;20500834;28;102870;-72
2022/08/20 13:47:24;;;;;;;;;;;;;;;;;;20499448;28;104108;-71
2022/08/20 13:57:24;;;;;;;;;;;;;;;;;;20497499;28;103351;-72
2022/08/20 14:07:24;;;;;;;;;;;;;;;;;;20495502;28;101535;-72
2022/08/20 14:17:25;;;;;;;;;;;;;;;;;;20498543;28;101785;-71
2022/08/20 14:27:25;;;;;;;;;;;;;;;;;;20504032;28;100285;-73
2022/08/20 14:37:25;;;;;;;;;;;;;;;;;;20503893;28;100339;-72
2022/08/20 14:47:25;;;;;;;;;;;;;;;;;;20492291;28;101195;-72
2022/08/20 14:57:26;;;;;;;;;;;;;;;;;;20501672;28;101926;-72
2022/08/20 15:07:26;;;;;;;;;;;;;;;;;;20584584;27;101533;-72
2022/08/20 15:17:26;;;;;;;;;;;;;;;;;;20588207;27;100608;-72
2022/08/20 15:27:26;;;;;;;;;;;;;;;;;;20609026;27;100951;-73
2022/08/20 15:37:26;;;;;;;;;;;;;;;;;;20594585;27;100412;-73
2022/08/20 15:47:27;;;;;;;;;;;;;;;;;;20598137;27;101611;-72
2022/08/20 15:57:27;;;;;;;;;;;;;;;;;;20598337;27;100126;-72
2022/08/20 16:07:27;;;;;;;;;;;;;;;;;;20586399;27;101154;-72
2022/08/20 16:17:27;;;;;;;;;;;;;;;;;;20585738;27;104228;-71
2022/08/20 16:27:27;;;;;;;;;;;;;;;;;;20575072;27;101045;-72
2022/08/20 16:37:27;;;;;;;;;;;;;;;;;;20568685;27;104168;-72
2022/08/20 16:47:28;;;;;;;;;;;;;;;;;;20577807;27;101107;-72
2022/08/20 16:57:28;;;;;;;;;;;;;;;;;;20571340;27;101081;-72
2022/08/20 17:07:29;;;;;;;;;;;;;;;;;;20574181;27;101429;-72
2022/08/20 17:17:29;;;;;;;;;;;;;;;;;;20542733;28;101547;-72
2022/08/20 17:27:29;;;;;;;;;;;;;;;;;;20582609;28;101545;-72
2022/08/20 17:37:29;;;;;;;;;;;;;;;;;;20578344;27;101725;-73
2022/08/20 17:47:30;;;;;;;;;;;;;;;;;;20571129;27;102511;-73
2022/08/20 17:57:30;;;;;;;;;;;;;;;;;;20568128;27;100328;-73
2022/08/20 18:07:31;;;;;;;;;;;;;;;;;;20573020;28;100758;-73
2022/08/20 18:17:31;;;;;;;;;;;;;;;;;;20564278;28;100964;-73
2022/08/20 18:27:31;;;;;;;;;;;;;;;;;;20570114;28;101644;-72
2022/08/20 18:37:31;;;;;;;;;;;;;;;;;;20574713;28;101248;-72
2022/08/20 18:47:32;;;;;;;;;;;;;;;;;;20575234;28;100508;-72
2022/08/20 18:57:32;;;;;;;;;;;;;;;;;;20590517;28;100972;-73
2022/08/20 19:07:32;;;;;;;;;;;;;;;;;;20573515;28;101907;-73
2022/08/20 19:17:32;;;;;;;;;;;;;;;;;;20574820;28;104226;-72
2022/08/20 19:27:32;;;;;;;;;;;;;;;;;;20564720;28;100336;-73
2022/08/20 19:37:32;;;;;;;;;;;;;;;;;;20567948;28;101103;-73
2022/08/20 19:47:33;;;;;;;;;;;;;;;;;;20574247;28;105672;-73
2022/08/20 19:57:33;;;;;;;;;;;;;;;;;;20583618;28;102773;-73
2022/08/20 20:07:33;;;;;;;;;;;;;;;;;;20583052;28;104281;-73
2022/08/20 20:17:33;;;;;;;;;;;;;;;;;;20583458;28;102068;-73
2022/08/20 20:27:35;;;;;;;;;;;;;;;;;;20581072;27;102775;-74
2022/08/20 20:37:35;;;;;;;;;;;;;;;;;;20559351;27;104054;-73
2022/08/20 20:47:36;;;;;;;;;;;;;;;;;;20566993;28;100379;-74
2022/08/20 20:57:37;;;;;;;;;;;;;;;;;;20565055;28;101009;-73
2022/08/20 21:07:37;;;;;;;;;;;;;;;;;;20554712;28;100334;-73
2022/08/20 21:17:37;;;;;;;;;;;;;;;;;;20565486;27;100577;-73
2022/08/20 21:27:37;;;;;;;;;;;;;;;;;;20564477;28;104058;-73
2022/08/20 21:37:37;;;;;;;;;;;;;;;;;;20562339;28;100537;-72
2022/08/20 21:47:37;;;;;;;;;;;;;;;;;;20549591;28;103779;-72
2022/08/20 21:57:38;;;;;;;;;;;;;;;;;;20512265;28;102385;-72
2022/08/20 22:07:38;;;;;;;;;;;;;;;;;;20535886;27;102195;-72
2022/08/20 22:17:38;;;;;;;;;;;;;;;;;;20552435;28;104009;-72
2022/08/20 22:27:38;;;;;;;;;;;;;;;;;;20545604;28;102041;-73
2022/08/20 22:37:38;;;;;;;;;;;;;;;;;;20552334;28;101944;-72
2022/08/20 22:47:38;;;;;;;;;;;;;;;;;;20539084;28;100909;-73
2022/08/20 22:57:39;;;;;;;;;;;;;;;;;;20556592;27;104099;-71
2022/08/20 23:07:39;;;;;;;;;;;;;;;;;;20545422;28;104013;-72
2022/08/20 23:17:39;;;;;;;;;;;;;;;;;;20561318;28;103299;-72
2022/08/20 23:27:39;;;;;;;;;;;;;;;;;;20575943;27;101071;-73
2022/08/20 23:37:39;;;;;;;;;;;;;;;;;;20572254;27;100926;-72
2022/08/20 23:47:39;;;;;;;;;;;;;;;;;;20571141;28;101756;-72
2022/08/20 23:57:40;;;;;;;;;;;;;;;;;;20554108;28;103800;-71
